Terminal Aerodrome Forecast
Issued by NWS Northern Indiana

Home | Current Version | Previous Version | Graphics & Text | Print | Product List | Glossary On
Versions: 1 2 3 4 5 6 7 8 9 10 11 12 13 14 15 16
000
FTUS43 KIWX 261129
TAFFWA
TAF
KFWA 261129Z 2612/2712 28010KT P6SM SCT020 BKN060
     FM261500 34010KT P6SM SCT020 BKN040
      TEMPO 2615/2618 BKN020
     FM270500 06010KT P6SM BKN020=

USA.gov is the U.S. government's official web portal to all federal, state and local government web resources and services.